メインページ
METAR-TAF:

METAR-TAF

空港 :

フンシャル, マデイラ諸島, ポルトガル

マデイラ空港

緯度: 32-41-52N, 経度: 016-46-28W, 海抜: 59m

現時点の気象観測

当レポートは21分前の11:30(UTC)に作成
変向風 4kt
気温 21°C
湿度 60%
気圧 1019 hPa
視程10km以上
高度1800ftの雲はほとんどない
高度3000ftの雲は散在している

METAR: LPMA 241130Z VRB04KT 9999 FEW018 SCT030 21/13 Q1019

時間: 12:51 (11:51 UTC)

予報

当レポートは51分前の11:00(UTC)に作成
予報は24日の 12時(UTC)から 25日の 12時(UTC)まで有効
南/南西の風 8kt
視程10km以上
高度1500ftの雲はほとんどない
高度3300ftの雲は散在している
24日の 13時(UTC)から 24日の 16時(UTC)まで徐々に
の風 10kt
24日の 22時(UTC)から 24日の 24時(UTC)まで徐々に
変向風 5kt
25日の 09時(UTC)から 25日の 11時(UTC)まで徐々に
南/南西の風 8kt

TAF: LPMA 241100Z 2412/2512 20008KT 9999 FEW015 SCT033 BECMG 2413/2416 35010KT BECMG 2422/2424 VRB05KT BECMG 2509/2511 20008KT

4,000以上の空港の気象観測と天気予報(METAR報とTAF報)

利用可能な観測所は地図上に黄色い丸と赤い丸で示す。

丸の上にカーソルを重ねると観測所名を参照できる。

次にクリックすると気象観測と天気予報を参照できる。

マップの切り替え:黒色「×」印の緑ボタンをクリックして拡大、「-」印の緑ボタンをクリックして縮小、緑色の三角印をクリックして隣りの地図に切り替え


METAR-TAF: